Time;durP1;ratioP1;P1;durP2;ratioP2;P2;SDS_P1;SDS_P2;PMS_P1;PMS_P2;Temp;Humidity;BMP_temperature;BMP_pressure;BME280_temperature;BME280_humidity;BME280_pressure;Samples;Min_cycle;Max_cycle;Signal;HPM_P1;HPM_P2
2023/12/27 00:02:00;;;;;;;18.42;9.20;;;;;;;-146.27;88.08;33910.47;5064882;28;20111;-73
2023/12/27 00:04:25;;;;;;;24.45;10.25;;;;;;;-146.27;87.52;33858.88;5069751;28;20039;-73
2023/12/27 00:06:53;;;;;;;19.33;8.98;;;;;;;-146.27;87.63;33858.88;5070309;28;20112;-74
2023/12/27 00:09:18;;;;;;;20.88;9.35;;;;;;;-146.27;87.47;33870.78;5066946;28;20028;-73
2023/12/27 00:11:44;;;;;;;16.08;9.00;;;;;;;-146.27;87.52;33886.66;5052677;28;20024;-73
2023/12/27 00:14:09;;;;;;;20.92;9.57;;;;;;;-146.27;87.44;33902.53;5041654;28;20024;-72
2023/12/27 00:16:35;;;;;;;21.63;8.95;;;;;;;-146.27;86.97;33874.75;5048577;28;20495;-73
2023/12/27 00:19:00;;;;;;;22.35;9.15;;;;;;;-146.27;87.61;33904.50;5062525;28;20051;-73
2023/12/27 00:21:25;;;;;;;21.92;8.73;;;;;;;-146.27;87.68;33898.56;5067550;28;20052;-73
2023/12/27 00:23:51;;;;;;;28.38;9.95;;;;;;;-146.27;87.94;33866.81;5060315;28;20025;-75
2023/12/27 00:26:16;;;;;;;22.67;10.82;;;;;;;-146.27;88.43;33916.41;5066852;28;20028;-73
2023/12/27 00:28:41;;;;;;;23.42;10.02;;;;;;;-146.27;88.09;33890.63;5065266;28;20111;-74
2023/12/27 00:31:07;;;;;;;19.48;9.93;;;;;;;-146.27;87.83;33920.38;5063994;28;20036;-72
2023/12/27 00:33:32;;;;;;;23.02;10.05;;;;;;;-146.27;88.38;33922.38;5068839;28;20020;-73
2023/12/27 00:35:57;;;;;;;18.40;9.38;;;;;;;-146.27;88.18;33874.75;5066956;28;20034;-73
2023/12/27 00:38:23;;;;;;;22.83;9.70;;;;;;;-146.27;88.06;33882.69;5067400;28;20459;-73
2023/12/27 00:40:48;;;;;;;25.38;10.45;;;;;;;-146.27;88.64;33862.84;5064550;28;20028;-74
2023/12/27 00:43:14;;;;;;;18.70;10.00;;;;;;;-146.27;87.97;33896.56;5067761;28;20024;-72
2023/12/27 00:45:39;;;;;;;20.35;8.55;;;;;;;-146.27;88.28;33886.66;5068983;28;20403;-73
2023/12/27 00:48:05;;;;;;;19.45;9.18;;;;;;;-146.27;88.62;33880.69;5068998;28;20059;-72
2023/12/27 00:50:30;;;;;;;16.17;8.48;;;;;;;-146.27;88.48;33864.81;5074663;28;20024;-73
2023/12/27 00:52:55;;;;;;;20.05;9.68;;;;;;;-146.27;88.25;33856.88;5070089;28;20020;-73
2023/12/27 00:55:21;;;;;;;19.40;9.30;;;;;;;-146.27;88.45;33862.84;5031556;28;1102403;-73
2023/12/27 00:57:46;;;;;;;17.73;9.45;;;;;;;-146.27;88.31;33837.03;5069447;28;20054;-73
2023/12/27 01:00:12;;;;;;;24.15;9.20;;;;;;;-146.27;88.76;33831.09;5075003;28;20099;-73
2023/12/27 01:02:39;;;;;;;19.83;9.25;;;;;;;-146.27;88.53;33829.09;5069209;28;20052;-73
2023/12/27 01:05:04;;;;;;;21.63;9.77;;;;;;;-146.27;88.83;33819.19;5070614;28;20020;-72
2023/12/27 01:07:30;;;;;;;22.95;9.57;;;;;;;-146.27;88.73;33807.28;5068542;28;20353;-73
2023/12/27 01:09:55;;;;;;;23.55;10.35;;;;;;;-146.27;88.91;33850.94;5068013;28;20025;-72
2023/12/27 01:12:20;;;;;;;27.35;10.02;;;;;;;-146.27;88.86;33811.25;5062792;28;20372;-73
2023/12/27 01:14:46;;;;;;;22.33;9.75;;;;;;;-146.27;88.39;33839.03;5069481;28;20471;-72
2023/12/27 01:17:11;;;;;;;20.92;8.95;;;;;;;-146.27;88.29;33821.16;5067980;28;20028;-73
2023/12/27 01:19:36;;;;;;;27.55;10.05;;;;;;;-146.27;88.57;33831.09;5068779;28;20038;-73
2023/12/27 01:22:02;;;;;;;27.23;10.35;;;;;;;-146.27;88.56;33858.88;5063733;28;20032;-73
2023/12/27 01:24:27;;;;;;;22.65;9.52;;;;;;;-146.27;88.38;33829.09;5066876;28;20035;-74
2023/12/27 01:26:52;;;;;;;18.08;8.93;;;;;;;-146.27;88.75;33825.13;5072626;28;20138;-72
2023/12/27 01:29:18;;;;;;;23.33;10.48;;;;;;;-146.27;88.31;33831.09;5058546;28;20067;-73
2023/12/27 01:31:43;;;;;;;19.38;9.50;;;;;;;-146.27;88.07;33815.22;5059841;28;20064;-72
2023/12/27 01:34:09;;;;;;;27.48;8.85;;;;;;;-146.27;88.72;33805.28;5063456;28;20020;-72
2023/12/27 01:36:34;;;;;;;18.08;8.82;;;;;;;-146.27;88.49;33829.09;5060310;28;20021;-72
2023/12/27 01:38:59;;;;;;;15.75;7.78;;;;;;;-146.27;88.33;33878.72;5063829;28;20028;-73
2023/12/27 01:41:25;;;;;;;20.67;8.20;;;;;;;-146.27;88.65;33862.84;5066795;28;20047;-72
2023/12/27 01:43:50;;;;;;;21.67;9.02;;;;;;;-146.27;88.42;33884.66;5065766;28;20017;-73
2023/12/27 01:46:16;;;;;;;21.67;8.52;;;;;;;-146.27;88.58;33858.88;5053404;28;20059;-73
2023/12/27 01:48:42;;;;;;;27.17;9.77;;;;;;;-146.27;88.84;33852.91;5050014;28;20085;-72
2023/12/27 01:51:08;;;;;;;19.20;8.32;;;;;;;-146.27;89.29;33815.22;5049846;28;20392;-72
2023/12/27 01:53:33;;;;;;;22.67;9.52;;;;;;;-146.27;89.17;33831.09;5048185;28;20021;-73
2023/12/27 01:56:01;;;;;;;20.65;8.55;;;;;;;-146.27;89.37;33819.19;5060937;28;20135;-72
2023/12/27 01:58:27;;;;;;;20.40;9.52;;;;;;;-146.27;89.70;33803.31;5052213;28;20392;-73
2023/12/27 02:00:52;;;;;;;24.92;9.82;;;;;;;-146.27;89.42;33819.19;5048973;28;20029;-72
2023/12/27 02:03:18;;;;;;;22.35;10.43;;;;;;;-146.27;89.35;33751.72;5049485;28;20093;-72
2023/12/27 02:05:45;;;;;;;22.40;9.93;;;;;;;-146.27;89.22;33755.69;5049836;28;20054;-72
2023/12/27 02:08:11;;;;;;;33.97;11.45;;;;;;;-146.27;89.08;33771.56;5047074;28;20039;-72
2023/12/27 02:10:37;;;;;;;23.98;10.85;;;;;;;-146.27;89.05;33743.78;5057606;28;20544;-72
2023/12/27 02:13:06;;;;;;;42.28;11.75;;;;;;;-146.27;89.29;33688.22;5050480;28;20036;-72
2023/12/27 02:15:32;;;;;;;27.10;11.32;;;;;;;-146.27;89.21;33749.72;5047453;28;20037;-72
2023/12/27 02:17:59;;;;;;;26.55;10.75;;;;;;;-146.27;89.00;33712.03;5050896;28;20039;-72
2023/12/27 02:20:25;;;;;;;27.95;12.18;;;;;;;-146.27;89.20;33727.91;5050184;28;20020;-73
2023/12/27 02:22:54;;;;;;;23.25;10.52;;;;;;;-146.27;89.45;33696.16;5045598;28;20032;-73
2023/12/27 02:25:20;;;;;;;29.10;11.05;;;;;;;-146.27;89.18;33700.13;5049153;28;20032;-72
2023/12/27 02:27:45;;;;;;;27.17;10.30;;;;;;;-146.27;89.13;33723.94;5050854;28;20052;-73
2023/12/27 02:30:21;;;;;;;26.15;9.93;;;;;;;-146.27;89.05;33672.34;5060670;28;20137;-73
2023/12/27 02:32:48;;;;;;;28.83;10.27;;;;;;;-146.27;89.17;33688.22;5061532;28;20032;-73
2023/12/27 02:35:14;;;;;;;34.58;11.32;;;;;;;-146.27;89.07;33688.22;5065086;28;20387;-72
2023/12/27 02:37:39;;;;;;;24.52;11.00;;;;;;;-146.27;89.13;33688.22;5066038;28;20028;-72
2023/12/27 02:40:05;;;;;;;29.48;11.13;;;;;;;-146.27;89.26;33688.22;5082411;28;20031;-72
2023/12/27 02:42:31;;;;;;;30.48;10.88;;;;;;;-146.27;89.10;33702.09;5071377;28;20035;-72
2023/12/27 02:44:56;;;;;;;25.30;10.50;;;;;;;-146.27;89.10;33676.31;5052723;28;20380;-72
2023/12/27 02:47:22;;;;;;;26.90;10.25;;;;;;;-146.27;89.17;33694.16;5061590;28;20021;-72
2023/12/27 02:49:47;;;;;;;30.70;10.18;;;;;;;-146.27;89.11;33656.47;5063684;28;20024;-72
2023/12/27 02:52:12;;;;;;;21.27;10.65;;;;;;;-146.27;89.28;33723.94;5064982;28;20048;-72
2023/12/27 02:54:38;;;;;;;27.17;10.45;;;;;;;-146.27;88.95;33688.22;5060715;28;20252;-72
2023/12/27 02:57:03;;;;;;;33.38;10.50;;;;;;;-146.27;89.08;33706.06;5049287;28;20112;-72
2023/12/27 02:59:29;;;;;;;24.73;9.50;;;;;;;-146.27;88.97;33702.09;5050052;28;20056;-72
2023/12/27 03:01:54;;;;;;;21.42;9.93;;;;;;;-146.27;88.94;33700.13;5049943;28;20025;-72
2023/12/27 03:04:19;;;;;;;32.85;10.82;;;;;;;-146.27;89.11;33727.91;5057551;28;20040;-72
2023/12/27 03:06:44;;;;;;;22.92;10.52;;;;;;;-146.27;88.90;33704.09;5065189;28;20029;-72
2023/12/27 03:09:10;;;;;;;30.75;10.57;;;;;;;-146.27;88.96;33680.28;5065553;28;20039;-72
2023/12/27 03:11:35;;;;;;;32.03;11.43;;;;;;;-146.27;89.16;33690.19;5067081;28;20095;-72
2023/12/27 03:14:01;;;;;;;22.70;11.30;;;;;;;-146.27;89.13;33684.25;5070253;28;20066;-72
2023/12/27 03:16:28;;;;;;;28.92;12.30;;;;;;;-146.27;89.05;33680.28;5063486;28;20035;-72
2023/12/27 03:18:53;;;;;;;29.02;11.13;;;;;;;-146.27;89.13;33682.25;5063316;28;20024;-72
2023/12/27 03:21:19;;;;;;;26.80;11.57;;;;;;;-146.27;89.14;33712.03;5053580;28;20221;-72
2023/12/27 03:23:44;;;;;;;24.27;11.32;;;;;;;-146.27;88.94;33642.56;5067101;28;20024;-72
2023/12/27 03:26:09;;;;;;;23.77;10.85;;;;;;;-146.27;89.12;33692.19;5068276;28;20288;-72
2023/12/27 03:28:35;;;;;;;27.70;11.20;;;;;;;-146.27;88.91;33658.44;5068021;28;20024;-72
2023/12/27 03:31:00;;;;;;;27.88;11.73;;;;;;;-146.27;88.88;33680.28;5052459;28;20090;-72
2023/12/27 03:33:26;;;;;;;32.92;11.45;;;;;;;-146.27;89.10;33656.47;5064237;28;20105;-72
2023/12/27 03:35:51;;;;;;;27.23;11.65;;;;;;;-146.27;88.78;33646.53;5063925;28;20027;-72
2023/12/27 03:38:17;;;;;;;31.23;11.77;;;;;;;-146.27;88.82;33658.44;5060237;28;20446;-72
2023/12/27 03:40:43;;;;;;;21.98;11.65;;;;;;;-146.27;88.64;33628.69;5065873;28;20127;-72
2023/12/27 03:43:08;;;;;;;33.80;11.20;;;;;;;-146.27;88.64;33638.59;5062020;28;20516;-73
2023/12/27 03:45:34;;;;;;;28.88;12.05;;;;;;;-146.27;88.97;33652.50;5072994;28;20028;-72
2023/12/27 03:47:59;;;;;;;33.40;11.88;;;;;;;-146.27;88.94;33634.66;5057725;28;20472;-73
2023/12/27 03:50:25;;;;;;;28.08;11.82;;;;;;;-146.27;88.87;33624.72;5059493;28;20028;-73
2023/12/27 03:52:50;;;;;;;24.92;12.00;;;;;;;-146.27;88.70;33589.00;5065428;28;20029;-73
2023/12/27 03:55:16;;;;;;;30.90;11.95;;;;;;;-146.27;88.73;33628.69;5064281;28;20095;-72
2023/12/27 03:57:41;;;;;;;28.48;12.57;;;;;;;-146.27;88.62;33632.66;5063747;28;20025;-72
2023/12/27 04:00:10;;;;;;;29.52;12.82;;;;;;;-146.27;88.54;33616.78;5067435;28;20021;-73
2023/12/27 04:02:35;;;;;;;26.25;11.32;;;;;;;-146.27;88.64;33594.97;5064427;28;20391;-73
2023/12/27 04:05:00;;;;;;;25.90;11.65;;;;;;;-146.27;88.63;33632.66;5063072;28;20056;-72
2023/12/27 04:07:26;;;;;;;25.17;11.02;;;;;;;-146.27;88.64;33600.91;5063442;28;20031;-72
2023/12/27 04:09:51;;;;;;;23.73;11.13;;;;;;;-146.27;88.72;33600.91;5056588;28;20025;-72
2023/12/27 04:12:17;;;;;;;24.00;10.60;;;;;;;-146.27;88.58;33589.00;5057637;28;20476;-72
2023/12/27 04:14:42;;;;;;;27.90;11.82;;;;;;;-146.27;88.51;33640.59;5071464;28;20451;-73
2023/12/27 04:17:07;;;;;;;30.98;12.35;;;;;;;-146.27;88.59;33614.81;5071848;28;20434;-73
2023/12/27 04:19:33;;;;;;;29.63;12.20;;;;;;;-146.27;88.82;33626.72;5056037;28;20490;-72
2023/12/27 04:21:58;;;;;;;18.25;10.05;;;;;;;-146.27;88.72;33608.84;5074758;28;20085;-72
2023/12/27 04:24:23;;;;;;;26.98;10.82;;;;;;;-146.27;88.89;33614.81;5069554;28;20020;-72
2023/12/27 04:26:49;;;;;;;21.88;10.38;;;;;;;-146.27;88.75;33614.81;5072943;28;20028;-73
2023/12/27 04:29:14;;;;;;;23.10;10.73;;;;;;;-146.27;88.58;33608.84;5071611;28;20020;-72
2023/12/27 04:31:39;;;;;;;29.40;10.60;;;;;;;-146.27;88.56;33622.75;5055756;28;20060;-73
2023/12/27 04:34:05;;;;;;;21.60;11.52;;;;;;;-146.27;88.58;33594.97;5062678;28;20036;-72
2023/12/27 04:36:32;;;;;;;30.92;9.57;;;;;;;-146.27;88.64;33594.97;5069220;28;20048;-72
2023/12/27 04:38:57;;;;;;;29.27;10.65;;;;;;;-146.27;88.89;33612.81;5067588;28;20468;-71
2023/12/27 04:41:23;;;;;;;23.75;9.45;;;;;;;-146.27;88.62;33587.03;5064140;28;20078;-72
2023/12/27 04:43:48;;;;;;;26.85;9.07;;;;;;;-146.27;88.82;33634.66;5071124;28;20383;-72
2023/12/27 04:46:14;;;;;;;22.67;9.23;;;;;;;-146.27;88.56;33596.94;5077629;28;20063;-72
2023/12/27 04:48:39;;;;;;;23.05;9.27;;;;;;;-146.27;88.57;33632.66;5065563;28;20036;-73
2023/12/27 04:51:05;;;;;;;23.70;9.25;;;;;;;-146.27;88.46;33606.88;5059024;28;20031;-72
2023/12/27 04:53:30;;;;;;;31.67;10.30;;;;;;;-146.27;88.43;33602.91;5060296;28;20032;-73
2023/12/27 04:55:55;;;;;;;22.20;9.82;;;;;;;-146.27;88.43;33602.91;5058658;28;20045;-73
2023/12/27 04:58:21;;;;;;;26.23;10.02;;;;;;;-146.27;88.30;33632.66;5069739;28;20029;-73
2023/12/27 05:00:46;;;;;;;27.08;10.07;;;;;;;-146.27;88.17;33634.66;5058254;28;20021;-73
2023/12/27 05:03:11;;;;;;;25.73;9.65;;;;;;;-146.27;88.29;33581.06;5052798;28;20036;-73
2023/12/27 05:05:37;;;;;;;27.25;9.60;;;;;;;-146.27;88.22;33585.03;5058340;28;20028;-73
2023/12/27 05:08:03;;;;;;;26.92;9.30;;;;;;;-146.27;88.31;33620.75;5066375;28;20047;-73
2023/12/27 05:10:28;;;;;;;17.65;8.18;;;;;;;-146.27;88.15;33581.06;5054539;28;20033;-73
2023/12/27 05:12:53;;;;;;;32.58;8.88;;;;;;;-146.27;88.36;33549.31;5068600;28;20142;-72
2023/12/27 05:15:19;;;;;;;22.38;8.52;;;;;;;-146.27;88.29;33561.22;5063432;28;20078;-73
2023/12/27 05:17:45;;;;;;;16.30;8.73;;;;;;;-146.27;88.29;33569.16;5070066;28;20119;-72
2023/12/27 05:20:11;;;;;;;26.42;9.23;;;;;;;-146.27;88.55;33557.25;5053915;28;20047;-72
2023/12/27 05:22:39;;;;;;;28.60;8.13;;;;;;;-146.27;88.35;33545.34;5060254;28;20020;-72
2023/12/27 05:25:08;;;;;;;19.05;7.78;;;;;;;-146.27;88.31;33517.56;5047140;28;20443;-72
2023/12/27 05:27:34;;;;;;;24.77;6.93;;;;;;;-146.27;88.54;33551.31;5048920;28;20461;-72
2023/12/27 05:29:59;;;;;;;22.88;7.72;;;;;;;-146.27;88.50;33541.38;5049774;28;20036;-72
2023/12/27 05:32:25;;;;;;;29.88;7.38;;;;;;;-146.27;88.43;33511.63;5064503;28;20040;-72
2023/12/27 05:34:52;;;;;;;24.60;6.13;;;;;;;-146.27;88.31;33509.63;5053794;28;20408;-72
2023/12/27 05:37:18;;;;;;;30.92;7.38;;;;;;;-146.27;88.48;33523.53;5059265;28;20506;-72
2023/12/27 05:39:43;;;;;;;24.08;7.03;;;;;;;-146.27;88.27;33473.91;5066009;28;20020;-73
2023/12/27 05:42:09;;;;;;;24.17;7.50;;;;;;;-146.27;88.27;33493.75;5051808;28;20029;-71
2023/12/27 05:44:35;;;;;;;15.93;6.78;;;;;;;-146.27;88.24;33489.78;5058714;28;20035;-72
2023/12/27 05:47:01;;;;;;;19.15;7.45;;;;;;;-146.27;88.19;33458.03;5063632;28;20111;-72
2023/12/27 05:49:27;;;;;;;23.70;7.65;;;;;;;-146.27;88.40;33491.78;5060153;28;20067;-73
2023/12/27 05:51:52;;;;;;;20.58;7.05;;;;;;;-146.27;88.45;33499.72;5063481;28;20425;-72
2023/12/27 05:54:18;;;;;;;22.55;7.32;;;;;;;-146.27;88.22;33501.69;5066553;28;20368;-72
2023/12/27 05:56:43;;;;;;;23.60;7.70;;;;;;;-146.27;88.29;33519.56;5062714;28;20029;-72
2023/12/27 05:59:09;;;;;;;17.27;7.80;;;;;;;-146.27;88.17;33489.78;5048159;28;20677;-72
2023/12/27 06:01:34;;;;;;;24.38;8.30;;;;;;;-146.27;88.27;33499.72;5050662;28;20029;-72
2023/12/27 06:04:03;;;;;;;24.45;7.70;;;;;;;-146.27;88.29;33525.50;5051246;28;20043;-72
2023/12/27 06:06:29;;;;;;;18.20;7.70;;;;;;;-146.27;88.43;33497.72;5057035;28;20024;-72
2023/12/27 06:08:54;;;;;;;29.42;7.82;;;;;;;-146.27;88.45;33485.81;5048685;28;20524;-71
2023/12/27 06:11:20;;;;;;;19.83;6.90;;;;;;;-146.27;88.52;33497.72;5047949;28;20079;-73
2023/12/27 06:13:45;;;;;;;23.13;7.47;;;;;;;-146.27;88.67;33527.50;5067934;28;20529;-73
2023/12/27 06:16:11;;;;;;;23.13;7.68;;;;;;;-146.27;88.78;33487.81;5060946;28;20063;-73
2023/12/27 06:18:36;;;;;;;21.17;7.53;;;;;;;-146.27;88.78;33489.78;5052765;28;20024;-72
2023/12/27 06:21:02;;;;;;;17.08;7.03;;;;;;;-146.27;88.89;33489.78;5055753;28;20061;-72
2023/12/27 06:23:28;;;;;;;21.92;7.55;;;;;;;-146.27;88.66;33497.72;5058959;28;20043;-73
2023/12/27 06:25:54;;;;;;;22.98;7.40;;;;;;;-146.27;89.00;33462.00;5067502;28;20104;-72
2023/12/27 06:28:20;;;;;;;24.58;7.97;;;;;;;-146.27;89.45;33489.78;5068574;28;20256;-72
2023/12/27 06:30:45;;;;;;;20.60;7.60;;;;;;;-146.27;89.16;33464.00;5064303;28;20468;-72
2023/12/27 06:33:11;;;;;;;21.00;7.28;;;;;;;-146.27;89.11;33477.88;5066487;28;20052;-72
2023/12/27 06:35:36;;;;;;;23.48;7.55;;;;;;;-146.27;89.37;33495.75;5057486;28;20491;-72
2023/12/27 06:38:01;;;;;;;18.23;7.03;;;;;;;-146.27;89.33;33483.84;5059163;28;20033;-73
2023/12/27 06:40:27;;;;;;;25.15;7.78;;;;;;;-146.27;89.24;33456.06;5068250;28;20028;-72
2023/12/27 06:42:53;;;;;;;17.48;7.32;;;;;;;-146.27;89.34;33465.97;5066478;28;20029;-72
2023/12/27 06:45:18;;;;;;;23.08;7.22;;;;;;;-146.27;89.65;33485.81;5064681;28;20314;-72
2023/12/27 06:47:43;;;;;;;32.95;8.30;;;;;;;-146.27;89.61;33462.00;5067666;28;20043;-72
2023/12/27 06:50:09;;;;;;;22.88;7.70;;;;;;;-146.27;89.46;33465.97;5068377;28;20051;-72
2023/12/27 06:52:34;;;;;;;25.20;8.57;;;;;;;-146.27;89.94;33475.91;5070089;28;20021;-72
2023/12/27 06:55:00;;;;;;;24.27;8.20;;;;;;;-146.27;89.98;33485.81;5066680;28;20051;-72
2023/12/27 06:57:25;;;;;;;23.63;7.65;;;;;;;-146.27;90.13;33436.22;5069215;28;20031;-72
2023/12/27 06:59:50;;;;;;;18.70;7.97;;;;;;;-146.27;90.23;33495.75;5069402;28;20054;-72
2023/12/27 07:02:16;;;;;;;27.65;7.78;;;;;;;-146.27;90.44;33424.31;5068263;28;20039;-72
2023/12/27 07:04:43;;;;;;;32.35;8.70;;;;;;;-146.27;90.25;33434.22;5069215;28;20400;-72
2023/12/27 07:07:08;;;;;;;27.33;8.50;;;;;;;-146.27;90.50;33448.13;5067543;28;20704;-73
2023/12/27 07:09:34;;;;;;;18.70;8.10;;;;;;;-146.27;90.87;33462.00;5063848;28;20021;-72
2023/12/27 07:11:59;;;;;;;21.10;9.93;;;;;;;-146.27;90.69;33450.09;5064296;28;20029;-73
2023/12/27 07:14:24;;;;;;;23.75;8.05;;;;;;;-146.27;90.82;33398.53;5066821;28;20424;-72
2023/12/27 07:16:50;;;;;;;26.83;8.85;;;;;;;-146.27;90.85;33434.22;5066728;28;20032;-73
2023/12/27 07:19:15;;;;;;;20.75;8.85;;;;;;;-146.27;91.23;33446.13;5068543;28;20025;-72
2023/12/27 07:21:40;;;;;;;25.85;9.52;;;;;;;-146.27;91.05;33446.13;5067015;28;20036;-73
2023/12/27 07:24:06;;;;;;;26.25;9.55;;;;;;;-146.27;91.07;33432.25;5065166;28;20021;-72
2023/12/27 07:26:32;;;;;;;19.90;9.68;;;;;;;-146.27;91.15;33378.69;5070890;28;20025;-72
2023/12/27 07:28:58;;;;;;;20.17;8.80;;;;;;;-146.27;91.32;33454.06;5071643;28;20066;-72
2023/12/27 07:31:23;;;;;;;22.20;9.63;;;;;;;-146.27;91.51;33434.22;5072675;28;20044;-72
2023/12/27 07:33:49;;;;;;;16.25;9.10;;;;;;;-146.27;91.44;33430.28;5074343;28;20047;-73
2023/12/27 07:36:16;;;;;;;17.70;9.95;;;;;;;-146.27;91.33;33442.16;5069577;28;20151;-73
2023/12/27 07:38:41;;;;;;;21.75;9.63;;;;;;;-146.27;91.72;33471.94;5061155;28;20399;-72
2023/12/27 07:41:06;;;;;;;22.05;10.27;;;;;;;-146.27;91.58;33426.28;5064858;28;20024;-72
2023/12/27 07:43:32;;;;;;;12.90;8.82;;;;;;;-146.27;91.61;33390.59;5062515;28;20722;-75
2023/12/27 07:45:58;;;;;;;18.70;9.80;;;;;;;-146.27;91.32;33438.19;5072962;28;20033;-73
2023/12/27 07:48:23;;;;;;;17.13;10.18;;;;;;;-146.27;92.03;33438.19;5070620;28;20051;-73
2023/12/27 07:50:50;;;;;;;16.85;9.90;;;;;;;-146.27;92.47;33438.19;5074020;28;20032;-73
2023/12/27 07:53:16;;;;;;;15.93;9.48;;;;;;;-146.27;92.29;33434.22;5072430;28;20024;-72
2023/12/27 07:55:42;;;;;;;16.48;10.52;;;;;;;-146.27;92.65;33430.28;5071850;28;20059;-73
2023/12/27 07:58:08;;;;;;;18.25;10.07;;;;;;;-146.27;92.50;33404.47;5072151;28;20032;-73
2023/12/27 08:00:33;;;;;;;14.68;10.88;;;;;;;-146.27;92.28;33402.50;5072318;28;20028;-73
2023/12/27 08:02:59;;;;;;;12.20;9.10;;;;;;;-146.27;92.12;33390.59;5074851;28;20035;-72
2023/12/27 08:05:24;;;;;;;16.70;10.15;;;;;;;-146.27;92.75;33426.28;5061355;28;20017;-73
2023/12/27 08:07:49;;;;;;;13.93;9.85;;;;;;;-146.27;92.59;33410.44;5068881;28;20025;-73
2023/12/27 08:10:15;;;;;;;15.27;9.60;;;;;;;-146.27;92.60;33442.16;5069244;28;20029;-73
2023/12/27 08:12:40;;;;;;;12.60;10.25;;;;;;;-146.27;92.60;33438.19;5070992;28;20067;-73
2023/12/27 08:15:06;;;;;;;13.68;9.90;;;;;;;-146.27;92.65;33396.53;5073699;28;20047;-73
2023/12/27 08:17:33;;;;;;;20.23;10.70;;;;;;;-146.27;92.53;33366.78;5069369;28;20050;-72
2023/12/27 08:19:59;;;;;;;13.70;10.05;;;;;;;-146.27;92.72;33281.47;5073098;28;20467;-73
2023/12/27 08:22:25;;;;;;;13.02;10.15;;;;;;;-146.27;92.76;33406.47;5070566;28;20645;-73
2023/12/27 08:24:50;;;;;;;13.90;10.38;;;;;;;-146.27;92.83;33394.56;5071522;28;20029;-73
2023/12/27 08:27:16;;;;;;;15.07;9.90;;;;;;;-146.27;92.68;33337.00;5069879;28;20032;-73
2023/12/27 08:29:42;;;;;;;15.32;10.63;;;;;;;-146.27;92.52;33398.53;5065371;28;20025;-73
2023/12/27 08:32:11;;;;;;;17.75;11.32;;;;;;;-146.27;92.62;33364.78;5070068;28;20361;-73
2023/12/27 08:34:36;;;;;;;18.08;11.05;;;;;;;-146.27;92.58;33366.78;5071828;28;20145;-73
2023/12/27 08:37:02;;;;;;;19.25;11.25;;;;;;;-146.27;92.62;33339.00;5067194;28;20043;-73
2023/12/27 08:39:28;;;;;;;15.20;10.70;;;;;;;-146.27;92.39;33309.22;5067875;28;20028;-73
2023/12/27 08:41:53;;;;;;;16.55;11.40;;;;;;;-146.27;92.31;33325.09;5069223;28;20055;-74
2023/12/27 08:44:19;;;;;;;16.48;10.82;;;;;;;-146.27;92.41;33307.25;5071190;28;20037;-73
2023/12/27 08:46:44;;;;;;;14.73;11.02;;;;;;;-146.27;92.60;33331.06;5072494;28;20078;-73
2023/12/27 08:49:09;;;;;;;18.42;10.98;;;;;;;-146.27;92.41;33281.47;5070817;28;20078;-73
2023/12/27 08:51:35;;;;;;;19.13;12.52;;;;;;;-146.27;92.53;33263.59;5069023;28;20036;-73
2023/12/27 08:54:00;;;;;;;18.23;10.95;;;;;;;-146.27;92.55;33223.91;5069020;28;20167;-74
2023/12/27 08:56:25;;;;;;;20.33;12.63;;;;;;;-146.27;93.13;33251.69;5066845;28;20040;-74
2023/12/27 08:58:51;;;;;;;19.48;13.15;;;;;;;-146.27;93.06;33251.69;5071051;28;20048;-75
2023/12/27 09:01:17;;;;;;;19.13;12.48;;;;;;;-146.27;93.41;33263.59;5080637;28;20032;-73
2023/12/27 09:03:42;;;;;;;17.15;11.18;;;;;;;-146.27;93.00;33188.19;5070412;28;20028;-74
2023/12/27 09:06:09;;;;;;;24.42;13.80;;;;;;;-146.27;92.71;33204.06;5069536;28;20201;-73
2023/12/27 09:08:37;;;;;;;22.23;13.40;;;;;;;-146.27;92.89;33196.13;5070216;28;20028;-73
2023/12/27 09:11:05;;;;;;;19.40;12.50;;;;;;;-146.27;92.76;33202.09;5066368;28;20043;-73
2023/12/27 09:13:31;;;;;;;22.42;13.13;;;;;;;-146.27;92.89;33156.47;5068958;28;20028;-73
2023/12/27 09:15:56;;;;;;;25.40;14.27;;;;;;;-146.27;93.00;33142.56;5072177;28;20035;-73
2023/12/27 09:18:21;;;;;;;28.20;15.73;;;;;;;-146.27;93.32;33148.53;5071022;28;20036;-73
2023/12/27 09:20:47;;;;;;;31.77;16.20;;;;;;;-146.27;93.04;33154.47;5074918;28;20077;-73
2023/12/27 09:23:12;;;;;;;27.85;16.00;;;;;;;-146.27;93.14;33136.63;5074772;28;20093;-73
2023/12/27 09:25:39;;;;;;;26.92;15.82;;;;;;;-146.27;93.11;33118.75;5070074;28;20150;-73
2023/12/27 09:28:04;;;;;;;27.02;16.13;;;;;;;-146.27;93.05;33096.94;5066225;28;20024;-73
2023/12/27 09:30:29;;;;;;;31.38;16.38;;;;;;;-146.27;93.19;33077.09;5072140;28;20035;-73
2023/12/27 09:32:55;;;;;;;26.92;14.73;;;;;;;-146.27;93.10;33037.41;5091788;28;20055;-73
2023/12/27 09:35:20;;;;;;;30.50;15.98;;;;;;;-146.27;93.11;33065.19;5087111;28;20027;-72
2023/12/27 09:37:45;;;;;;;30.73;15.90;;;;;;;-146.27;93.02;33041.38;5072245;28;20078;-72
2023/12/27 09:40:11;;;;;;;29.00;16.17;;;;;;;-146.27;93.19;33027.50;5067228;28;20021;-72
2023/12/27 09:42:39;;;;;;;27.23;15.80;;;;;;;-146.27;92.99;32962.03;5070158;28;20036;-73
2023/12/27 09:45:07;;;;;;;31.20;15.48;;;;;;;-146.27;93.31;33011.63;5070289;28;20039;-74
2023/12/27 09:47:34;;;;;;;32.95;16.48;;;;;;;-146.27;93.42;32946.16;5062087;28;20040;-73
2023/12/27 09:50:01;;;;;;;33.25;18.10;;;;;;;-146.27;93.17;32926.31;5067429;28;20115;-73
2023/12/27 09:52:28;;;;;;;31.08;16.58;;;;;;;-146.27;93.62;32973.94;5069058;28;20324;-72
2023/12/27 09:54:54;;;;;;;30.55;16.50;;;;;;;-146.27;93.82;32952.09;5065946;28;20404;-72
2023/12/27 09:57:22;;;;;;;32.78;16.75;;;;;;;-146.27;94.16;32952.09;5068355;28;20020;-73
2023/12/27 09:59:50;;;;;;;35.65;16.35;;;;;;;-146.27;94.38;32948.13;5068611;28;20415;-73
2023/12/27 10:02:18;;;;;;;31.08;16.58;;;;;;;-146.27;94.06;32966.00;5069626;28;20025;-73
2023/12/27 10:05:09;;;;;;;35.78;17.30;;;;;;;-146.27;94.03;32890.59;5068450;28;20039;-73
2023/12/27 10:07:39;;;;;;;33.60;17.08;;;;;;;-146.27;94.51;32811.25;5065156;28;20085;-73
2023/12/27 10:10:07;;;;;;;30.50;16.30;;;;;;;-146.27;94.16;32882.66;5065593;28;20028;-73
2023/12/27 10:12:32;;;;;;;29.75;16.88;;;;;;;-146.27;94.56;32876.72;5067665;28;20024;-72
2023/12/27 10:14:57;;;;;;;32.22;15.80;;;;;;;-146.27;94.21;32846.97;5070631;28;20059;-73
2023/12/27 10:17:23;;;;;;;28.67;15.23;;;;;;;-146.27;94.27;32876.72;5067050;28;20377;-73
2023/12/27 10:19:49;;;;;;;28.65;14.38;;;;;;;-146.27;94.21;32811.25;5071454;28;20017;-74
2023/12/27 10:22:14;;;;;;;38.22;16.58;;;;;;;-146.27;94.51;32825.13;5070191;28;20025;-74
2023/12/27 10:24:40;;;;;;;26.73;15.32;;;;;;;-146.27;94.50;32833.06;5065687;28;20093;-73
2023/12/27 10:27:08;;;;;;;32.83;15.05;;;;;;;-146.27;94.32;32763.63;5057283;28;20107;-74
2023/12/27 10:29:34;;;;;;;32.55;14.65;;;;;;;-146.27;94.23;32751.75;5066951;28;20016;-74
2023/12/27 10:32:00;;;;;;;30.83;15.35;;;;;;;-146.27;94.81;32815.22;5070130;28;20107;-74
2023/12/27 10:34:29;;;;;;;30.63;15.57;;;;;;;-146.27;94.58;32729.91;5052941;28;20021;-75
2023/12/27 10:36:56;;;;;;;33.58;14.63;;;;;;;-146.27;94.11;32727.94;5065359;28;20059;-74
2023/12/27 10:39:22;;;;;;;29.20;14.40;;;;;;;-146.27;94.77;32741.81;5059364;28;20053;-75
2023/12/27 10:41:51;;;;;;;37.10;15.65;;;;;;;-146.27;94.48;32680.31;5066306;28;20495;-75
2023/12/27 10:44:18;;;;;;;27.55;13.85;;;;;;;-146.27;95.60;32731.91;5051720;28;20525;-75
2023/12/27 10:46:44;;;;;;;25.75;13.50;;;;;;;-146.27;95.60;32751.75;5063334;28;20020;-73
2023/12/27 10:49:13;;;;;;;29.95;13.85;;;;;;;-146.27;95.97;32696.19;5069806;28;20089;-74
2023/12/27 10:51:40;;;;;;;23.65;13.75;;;;;;;-146.27;94.83;32727.94;5066108;28;20031;-73
2023/12/27 10:54:06;;;;;;;27.42;13.45;;;;;;;-146.27;95.25;32741.81;5066976;28;20032;-73
2023/12/27 10:56:39;;;;;;;26.60;13.93;;;;;;;-146.27;94.83;32727.94;5049843;28;20071;-73
2023/12/27 10:59:06;;;;;;;24.10;12.80;;;;;;;-146.27;95.29;32733.88;5051667;28;20085;-73